首页
METAR-TAF:

METAR-TAF

机场 :

亚历山德里亚, 路易斯安那州, 美国

纬度: 31-20-05N, 经度: 092-33-31W, 海拔: 27米

当前天气观测

该预报发布于1小时和3分钟前的19:53 UTC
风速9节,风向,有时为15节阵风
温度 33°C
湿度 41%
气压 1010 hPa
能見度: 16.1公里
天空无云

METAR: KAEX 061953Z 08009G15KT 10SM CLR 33/18 A2983 RMK AO2 SLP103 T03280178

时间: 15:56 (20:56 UTC)

预报

该预报发布于3小时和12分钟前的17:44 UTC
预报有效从06日的 18点(UTC)到 07日的 18点(UTC)
风速8节,风向东转东北
能見度: 10公里
少量云层高于4000英尺
从 06日的 2000点(UTC)
风速11节,风向东北
能見度: 10公里
散云层高于4000英尺
从 07日的 0000点(UTC)
风速6节,风向东北
能見度: 10公里
散云层高于25000英尺
从 07日的 1400点(UTC)
风速12节,风向东北,有时为20节阵风
能見度: 10公里
多云层高于2500英尺
多云层高于25000英尺

TAF: KAEX 061744Z 0618/0718 07008KT P6SM FEW040 FM062000 04011KT P6SM SCT040 FM070000 05006KT P6SM SCT250 FM071400 05012G20KT P6SM BKN025 BKN250

超过4000个机场的气象观测和天气预报(METAR&TAF报告)。

可查询的气象台以黄色和红色小点在地图上表示。

将鼠标移到小点上方,可查看气象台名称。

然后点击查看天气观测和预报。

如需切换地图:点击带黑十字的绿色按钮放大地图;点击带横线的绿色按钮缩小地图;或者点击绿色箭头查看邻近地区的地图。


METAR-TAF: